createdAt,value
2018-07-01T00:01:20.946Z,0.40
2018-07-01T00:03:49.726Z,0.47
2018-07-01T00:06:18.753Z,0.40
2018-07-01T00:08:47.621Z,0.60
2018-07-01T00:11:16.570Z,0.50
2018-07-01T00:13:45.498Z,0.60
2018-07-01T00:16:14.327Z,0.50
2018-07-01T00:18:43.215Z,0.60
2018-07-01T00:21:12.164Z,0.57
2018-07-01T00:23:41.087Z,0.60
2018-07-01T00:26:10.176Z,0.40
2018-07-01T00:28:39.115Z,0.40
2018-07-01T00:31:08.083Z,0.70
2018-07-01T00:33:36.836Z,0.40
2018-07-01T00:36:05.818Z,0.60
2018-07-01T00:38:34.829Z,0.75
2018-07-01T00:41:03.822Z,0.55
2018-07-01T00:43:32.854Z,0.50
2018-07-01T00:46:01.996Z,0.57
2018-07-01T00:48:30.874Z,0.50
2018-07-01T00:51:00.058Z,0.50
2018-07-01T00:53:28.890Z,0.50
2018-07-01T00:55:57.568Z,0.50
2018-07-01T00:58:26.200Z,0.60
2018-07-01T01:00:55.217Z,0.60
2018-07-01T01:03:24.233Z,0.70
2018-07-01T01:05:53.112Z,0.60
2018-07-01T01:08:21.917Z,0.53
2018-07-01T01:10:50.993Z,0.50
2018-07-01T01:13:19.908Z,0.53
2018-07-01T01:15:49.127Z,0.60
2018-07-01T01:18:17.926Z,0.63
2018-07-01T01:20:47.010Z,0.70
2018-07-01T01:23:15.923Z,0.60
2018-07-01T01:25:44.936Z,0.70
2018-07-01T01:28:13.833Z,0.70
2018-07-01T01:30:42.465Z,0.60
2018-07-01T01:33:11.204Z,0.70
2018-07-01T01:35:39.881Z,0.70
2018-07-01T01:38:08.552Z,0.50
2018-07-01T01:40:37.482Z,0.70
2018-07-01T01:43:06.245Z,1.13
2018-07-01T01:45:35.457Z,0.70
2018-07-01T01:48:04.459Z,0.67
2018-07-01T01:50:33.475Z,0.63
2018-07-01T01:53:02.654Z,0.73
2018-07-01T01:55:31.589Z,0.63
2018-07-01T01:58:00.640Z,0.60
2018-07-01T02:00:29.642Z,0.50
2018-07-01T02:02:58.659Z,0.60
2018-07-01T02:05:27.238Z,0.60
2018-07-01T02:07:55.943Z,0.93
2018-07-01T02:10:24.606Z,0.70
2018-07-01T02:12:53.300Z,0.60
2018-07-01T02:15:21.943Z,0.70
2018-07-01T02:17:50.614Z,0.60
2018-07-01T02:20:19.540Z,0.70
2018-07-01T02:22:48.557Z,0.73
2018-07-01T02:25:17.388Z,0.70
2018-07-01T02:27:46.290Z,0.77
2018-07-01T02:30:15.450Z,0.60
2018-07-01T02:32:44.261Z,0.60
2018-07-01T02:35:13.079Z,0.62
2018-07-01T02:37:42.009Z,0.60
2018-07-01T02:40:11.241Z,0.53
2018-07-01T02:42:40.361Z,0.47
2018-07-01T02:45:09.787Z,0.50
2018-07-01T02:47:39.072Z,0.60
2018-07-01T02:50:07.805Z,0.60
2018-07-01T02:52:36.805Z,0.63
2018-07-01T02:55:05.848Z,0.50
2018-07-01T02:57:34.720Z,0.70
2018-07-01T03:00:03.606Z,0.30
2018-07-01T03:02:32.692Z,0.60
2018-07-01T03:05:01.731Z,0.50
2018-07-01T03:07:30.554Z,0.50
2018-07-01T03:09:59.529Z,0.50
2018-07-01T03:12:29.712Z,0.47
2018-07-01T03:14:58.492Z,0.70
2018-07-01T03:17:27.501Z,0.40
2018-07-01T03:19:56.431Z,0.60
2018-07-01T03:22:25.481Z,0.63
2018-07-01T03:24:54.595Z,0.70
2018-07-01T03:27:23.510Z,0.40
2018-07-01T03:29:52.636Z,0.50
2018-07-01T03:32:21.704Z,0.50
2018-07-01T03:34:51.775Z,0.67
2018-07-01T03:37:20.812Z,0.67
2018-07-01T03:39:49.619Z,0.43
2018-07-01T03:42:18.668Z,0.57
2018-07-01T03:44:47.456Z,0.60
2018-07-01T03:47:16.628Z,0.53
2018-07-01T03:49:45.486Z,0.60
2018-07-01T03:52:14.402Z,0.70
2018-07-01T03:54:43.496Z,0.50
2018-07-01T03:57:12.291Z,0.47
2018-07-01T03:59:41.425Z,0.60
2018-07-01T04:02:10.481Z,0.47
2018-07-01T04:04:39.606Z,0.50
2018-07-01T04:07:08.309Z,0.60
2018-07-01T04:09:37.267Z,0.60
2018-07-01T04:12:06.714Z,0.70
2018-07-01T04:14:35.509Z,0.80
2018-07-01T04:17:04.650Z,0.60
2018-07-01T04:19:33.289Z,0.60
2018-07-01T04:22:07.694Z,0.50
2018-07-01T04:24:36.639Z,0.70
2018-07-01T04:27:06.662Z,0.60
2018-07-01T04:29:35.562Z,0.40
2018-07-01T04:32:06.866Z,0.65
2018-07-01T04:34:36.328Z,1.07
2018-07-01T04:37:10.244Z,0.47
2018-07-01T04:39:41.782Z,0.50
2018-07-01T04:42:14.734Z,0.43
2018-07-01T04:44:48.434Z,0.60
2018-07-01T04:47:17.097Z,0.60
2018-07-01T04:49:46.222Z,0.40
2018-07-01T04:52:15.221Z,0.50
2018-07-01T04:54:46.254Z,0.40
2018-07-01T04:57:16.869Z,0.50
2018-07-01T04:59:46.615Z,0.30
2018-07-01T05:02:18.353Z,0.60
2018-07-01T05:04:47.386Z,0.60
2018-07-01T05:07:18.851Z,0.60
2018-07-01T05:09:47.803Z,0.40
2018-07-01T05:12:16.630Z,0.50
2018-07-01T05:14:45.742Z,0.53
2018-07-01T05:17:14.882Z,0.47
2018-07-01T05:19:43.767Z,0.60
2018-07-01T05:22:12.616Z,0.70
2018-07-01T05:24:41.575Z,0.50
2018-07-01T05:27:10.627Z,0.50
2018-07-01T05:29:39.711Z,0.50
2018-07-01T05:32:08.671Z,0.40
2018-07-01T05:34:37.879Z,0.43
2018-07-01T05:37:06.791Z,0.50
2018-07-01T05:39:38.529Z,0.60
2018-07-01T05:42:04.768Z,0.70
2018-07-01T05:44:33.800Z,0.30
2018-07-01T05:47:02.667Z,0.37
2018-07-01T05:49:31.913Z,0.50
2018-07-01T05:52:00.799Z,0.40
2018-07-01T05:54:29.896Z,0.27
2018-07-01T05:57:01.561Z,0.40
2018-07-01T05:59:30.836Z,0.40
2018-07-01T06:01:59.839Z,0.30
2018-07-01T06:04:28.738Z,0.55
2018-07-01T06:06:58.797Z,0.50
2018-07-01T06:09:27.704Z,0.30
2018-07-01T06:11:56.627Z,0.20
2018-07-01T06:14:25.511Z,0.60
2018-07-01T06:16:54.558Z,0.55
2018-07-01T06:19:23.708Z,0.70
2018-07-01T06:21:52.813Z,0.37
2018-07-01T06:24:21.996Z,0.40
2018-07-01T06:26:50.976Z,0.30
2018-07-01T06:29:22.721Z,0.37
2018-07-01T06:31:51.624Z,0.50
2018-07-01T06:34:20.533Z,0.30
2018-07-01T06:36:49.610Z,0.40
2018-07-01T06:39:20.881Z,0.37
2018-07-01T06:41:49.912Z,0.30
2018-07-01T06:44:18.753Z,0.30
2018-07-01T06:46:47.736Z,0.22
2018-07-01T06:49:16.781Z,0.28
2018-07-01T06:51:46.089Z,0.30
2018-07-01T06:54:15.127Z,0.20
2018-07-01T06:56:44.261Z,0.30
2018-07-01T06:59:13.175Z,0.20
2018-07-01T07:01:42.424Z,0.43
2018-07-01T07:04:11.510Z,0.65
2018-07-01T07:06:40.675Z,0.30
2018-07-01T07:09:09.706Z,0.20
2018-07-01T07:11:38.849Z,0.32
2018-07-01T07:14:07.608Z,0.30
2018-07-01T07:16:36.237Z,0.43
2018-07-01T07:19:05.417Z,0.43
2018-07-01T07:21:34.326Z,0.30
2018-07-01T07:24:03.030Z,0.30
2018-07-01T07:26:31.724Z,0.40
2018-07-01T07:29:00.412Z,0.30
2018-07-01T07:31:29.049Z,0.40
2018-07-01T07:33:57.759Z,0.20
2018-07-01T07:36:26.383Z,0.20
2018-07-01T07:38:55.354Z,0.30
2018-07-01T07:41:24.423Z,0.35
2018-07-01T07:43:53.563Z,0.30
2018-07-01T07:46:22.380Z,0.13
2018-07-01T07:48:51.283Z,0.13
2018-07-01T07:51:20.343Z,0.25
2018-07-01T07:53:49.344Z,0.10
2018-07-01T07:56:18.255Z,0.47
2018-07-01T07:58:47.276Z,0.30
2018-07-01T08:01:16.338Z,0.22
2018-07-01T08:03:45.156Z,0.30
2018-07-01T08:06:14.145Z,0.28
2018-07-01T08:08:43.009Z,0.20
2018-07-01T08:11:11.970Z,0.82
2018-07-01T08:13:41.033Z,0.88
2018-07-01T08:16:10.105Z,0.50
2018-07-01T08:18:39.027Z,0.30
2018-07-01T08:21:07.939Z,0.30
2018-07-01T08:23:37.035Z,0.20
2018-07-01T08:26:06.231Z,0.20
2018-07-01T08:28:35.145Z,0.20
2018-07-01T08:31:06.252Z,0.30
2018-07-01T08:33:35.720Z,0.30
2018-07-01T08:36:07.681Z,0.40
2018-07-01T08:38:38.161Z,0.20
2018-07-01T08:41:07.494Z,0.30
2018-07-01T08:43:36.385Z,0.30
2018-07-01T08:46:08.984Z,0.30
2018-07-01T08:48:38.072Z,0.22
2018-07-01T08:51:07.259Z,0.20
2018-07-01T08:53:36.284Z,0.30
2018-07-01T08:56:06.301Z,0.35
2018-07-01T08:58:35.313Z,0.20
2018-07-01T09:01:04.539Z,0.40
2018-07-01T09:03:33.236Z,0.15
2018-07-01T09:06:03.633Z,0.20
2018-07-01T09:08:32.309Z,0.60
2018-07-01T09:11:01.016Z,0.37
2018-07-01T09:13:29.672Z,0.20
2018-07-01T09:15:58.387Z,0.10
2018-07-01T09:18:27.626Z,0.20
2018-07-01T09:20:56.298Z,0.20
2018-07-01T09:23:24.954Z,0.30
2018-07-01T09:25:53.611Z,0.30
2018-07-01T09:28:22.258Z,0.20
2018-07-01T09:30:50.959Z,0.20
2018-07-01T09:33:19.588Z,0.20
2018-07-01T09:35:48.235Z,0.20
2018-07-01T09:38:16.922Z,0.13
2018-07-01T09:40:45.582Z,0.28
2018-07-01T09:43:14.264Z,0.20
2018-07-01T09:45:42.930Z,0.13
2018-07-01T09:48:11.564Z,0.20
2018-07-01T09:50:40.289Z,0.32
2018-07-01T09:53:08.878Z,0.30
2018-07-01T09:55:37.596Z,0.17
2018-07-01T09:58:06.232Z,0.25
2018-07-01T10:00:34.933Z,0.30
2018-07-01T10:03:03.615Z,0.20
2018-07-01T10:05:32.329Z,0.30
2018-07-01T10:08:00.960Z,0.20
2018-07-01T10:10:29.644Z,0.17
2018-07-01T10:12:58.290Z,0.20
2018-07-01T10:15:27.016Z,0.25
2018-07-01T10:17:55.692Z,0.20
2018-07-01T10:20:24.389Z,0.15
2018-07-01T10:22:54.294Z,0.20
2018-07-01T10:25:23.284Z,0.10
2018-07-01T10:27:52.098Z,0.20
2018-07-01T10:30:20.793Z,0.20
2018-07-01T10:32:49.484Z,0.20
2018-07-01T10:35:18.181Z,0.25
2018-07-01T10:37:46.859Z,0.20
2018-07-01T10:40:15.581Z,0.30
2018-07-01T10:42:44.226Z,0.20
2018-07-01T10:45:15.825Z,0.20
2018-07-01T10:47:44.532Z,0.17
2018-07-01T10:50:13.223Z,0.20
2018-07-01T10:52:43.342Z,0.20
2018-07-01T10:55:14.874Z,0.10
2018-07-01T10:57:43.664Z,0.20
2018-07-01T11:00:12.192Z,0.30
2018-07-01T11:02:40.882Z,0.10
2018-07-01T11:05:09.830Z,0.25
2018-07-01T11:07:38.835Z,0.43
2018-07-01T11:10:07.528Z,0.20
2018-07-01T11:12:36.290Z,0.20
2018-07-01T11:15:04.934Z,0.20
2018-07-01T11:17:33.617Z,0.17
2018-07-01T11:20:02.288Z,0.20
2018-07-01T11:22:31.020Z,0.40
2018-07-01T11:24:59.714Z,0.13
2018-07-01T11:27:28.924Z,0.25
2018-07-01T11:29:58.393Z,0.17
2018-07-01T11:32:27.779Z,0.20
2018-07-01T11:34:56.544Z,0.20
2018-07-01T11:37:25.272Z,0.20
2018-07-01T11:39:54.867Z,0.20
2018-07-01T11:42:23.558Z,0.30
2018-07-01T11:44:52.216Z,0.10
2018-07-01T11:47:20.917Z,0.20
2018-07-01T11:49:49.758Z,0.30
2018-07-01T11:52:18.431Z,0.20
2018-07-01T11:54:47.660Z,0.20
2018-07-01T11:57:16.338Z,0.30
2018-07-01T11:59:45.025Z,0.20
2018-07-01T12:02:16.454Z,0.20
2018-07-01T12:05:02.951Z,0.30
2018-07-01T12:07:14.849Z,0.30
2018-07-01T12:09:44.925Z,0.25
2018-07-01T12:12:14.499Z,0.43
2018-07-01T12:14:44.469Z,0.20
2018-07-01T12:20:08.383Z,0.10
2018-07-01T12:22:41.195Z,0.28
2018-07-01T12:25:19.645Z,0.20
2018-07-01T12:27:51.613Z,0.20
2018-07-01T12:30:22.385Z,0.30
2018-07-01T12:32:53.818Z,0.10
2018-07-01T12:35:24.289Z,0.30
2018-07-01T12:37:53.337Z,0.30
2018-07-01T12:40:26.404Z,0.10
2018-07-01T12:42:56.567Z,0.45
2018-07-01T12:45:30.265Z,0.30
2018-07-01T12:47:59.517Z,0.30
2018-07-01T12:50:28.556Z,0.10
2018-07-01T12:53:05.054Z,0.30
2018-07-01T12:55:36.527Z,0.20
2018-07-01T12:58:06.850Z,0.10
2018-07-01T13:00:37.084Z,0.28
2018-07-01T13:03:08.528Z,0.17
2018-07-01T13:05:47.764Z,0.10
2018-07-01T13:08:22.705Z,0.10
2018-07-01T13:10:55.609Z,0.30
2018-07-01T13:13:25.564Z,0.30
2018-07-01T13:15:57.699Z,0.30
2018-07-01T13:18:26.922Z,0.28
2018-07-01T13:20:59.645Z,0.20
2018-07-01T13:23:28.610Z,0.10
2018-07-01T13:25:57.508Z,0.10
2018-07-01T13:28:26.587Z,0.20
2018-07-01T13:30:55.482Z,0.10
2018-07-01T13:33:37.502Z,0.22
2018-07-01T13:36:06.475Z,0.20
2018-07-01T13:38:35.274Z,0.30
2018-07-01T13:43:48.582Z,0.10
2018-07-01T13:46:17.676Z,0.32
2018-07-01T13:48:48.302Z,0.30
2018-07-01T13:51:18.027Z,0.20
2018-07-01T13:53:48.116Z,0.40
2018-07-01T13:56:18.111Z,0.17
2018-07-01T13:58:47.171Z,0.17
2018-07-01T14:01:16.575Z,0.40
2018-07-01T14:03:47.157Z,0.15
2018-07-01T14:06:17.670Z,0.20
2018-07-01T14:08:49.265Z,0.30
2018-07-01T14:11:18.843Z,0.20
2018-07-01T14:13:48.398Z,0.20
2018-07-01T14:16:17.636Z,0.30
2018-07-01T14:18:48.387Z,0.20
2018-07-01T14:21:17.717Z,0.20
2018-07-01T14:26:36.698Z,0.10
2018-07-01T14:29:10.250Z,0.43
2018-07-01T14:31:40.225Z,0.30
2018-07-01T14:34:12.466Z,0.40
2018-07-01T14:36:41.423Z,0.30
2018-07-01T14:39:12.362Z,0.10
2018-07-01T14:41:43.431Z,0.20
2018-07-01T14:44:16.914Z,0.22
2018-07-01T14:46:47.240Z,0.30
2018-07-01T14:49:27.086Z,0.30
2018-07-01T14:51:56.709Z,0.43
2018-07-01T14:54:27.109Z,0.10
2018-07-01T14:56:56.914Z,0.20
2018-07-01T14:59:31.173Z,0.32
2018-07-01T15:02:00.324Z,0.20
2018-07-01T15:04:29.431Z,0.10
2018-07-01T15:07:01.691Z,0.22
2018-07-01T15:09:30.737Z,0.20
2018-07-01T15:12:00.922Z,0.25
2018-07-01T15:14:36.668Z,0.30
2018-07-01T15:17:10.570Z,0.40
2018-07-01T15:22:27.683Z,0.17
2018-07-01T15:24:58.006Z,0.20
2018-07-01T15:27:27.255Z,0.30
2018-07-01T15:29:59.429Z,0.20
2018-07-01T15:32:31.056Z,0.20
2018-07-01T15:35:03.994Z,0.50
2018-07-01T15:37:33.373Z,0.20
2018-07-01T15:40:02.502Z,0.20
2018-07-01T15:42:35.326Z,0.25
2018-07-01T15:45:07.277Z,0.30
2018-07-01T15:47:38.930Z,0.40
2018-07-01T15:50:07.753Z,0.30
2018-07-01T15:52:36.547Z,0.30
2018-07-01T15:55:05.879Z,0.25
2018-07-01T15:57:34.605Z,0.30
2018-07-01T16:00:05.027Z,0.30
2018-07-01T16:02:32.220Z,0.28
2018-07-01T16:05:02.263Z,0.22
2018-07-01T16:10:20.151Z,0.20
2018-07-01T16:12:50.120Z,0.22
2018-07-01T16:15:19.371Z,0.30
2018-07-01T16:17:48.637Z,0.20
2018-07-01T16:20:17.750Z,0.25
2018-07-01T16:22:49.540Z,0.37
2018-07-01T16:25:18.809Z,0.20
2018-07-01T16:27:49.728Z,0.30
2018-07-01T16:30:18.566Z,0.50
2018-07-01T16:32:48.480Z,0.40
2018-07-01T16:35:19.331Z,0.20
2018-07-01T16:37:48.662Z,0.30
2018-07-01T16:40:17.369Z,0.30
2018-07-01T16:42:47.753Z,0.40
2018-07-01T16:45:16.548Z,0.20
2018-07-01T16:47:45.225Z,0.40
2018-07-01T16:50:14.039Z,0.45
2018-07-01T16:52:42.861Z,0.30
2018-07-01T16:55:11.740Z,0.50
2018-07-01T16:57:40.540Z,0.40
2018-07-01T17:00:09.405Z,0.25
2018-07-01T17:02:38.208Z,0.35
2018-07-01T17:05:07.088Z,0.60
2018-07-01T17:07:35.867Z,0.57
2018-07-01T17:10:04.764Z,0.45
2018-07-01T17:12:33.637Z,0.30
2018-07-01T17:15:02.469Z,0.40
2018-07-01T17:17:34.364Z,0.40
2018-07-01T17:20:03.120Z,0.30
2018-07-01T17:25:19.675Z,0.55
2018-07-01T17:27:48.458Z,0.50
2018-07-01T17:30:17.267Z,0.50
2018-07-01T17:32:59.466Z,0.57
2018-07-01T17:35:28.283Z,0.30
2018-07-01T17:37:56.862Z,0.50
2018-07-01T17:40:25.525Z,0.50
2018-07-01T17:42:54.201Z,0.50
2018-07-01T17:45:22.833Z,0.50
2018-07-01T17:47:53.043Z,0.50
2018-07-01T17:50:21.705Z,0.50
2018-07-01T17:52:50.382Z,0.45
2018-07-01T17:55:19.047Z,0.47
2018-07-01T17:57:47.664Z,0.52
2018-07-01T18:00:16.337Z,0.37
2018-07-01T18:02:45.019Z,0.13
2018-07-01T18:05:13.748Z,0.20
2018-07-01T18:07:42.449Z,0.30
2018-07-01T18:10:11.182Z,0.20
2018-07-01T18:12:39.825Z,0.30
2018-07-01T18:15:08.591Z,0.30
2018-07-01T18:17:37.348Z,0.20
2018-07-01T18:20:06.046Z,0.45
2018-07-01T18:23:00.807Z,0.25
2018-07-01T18:25:09.842Z,0.20
2018-07-01T18:27:34.633Z,0.30
2018-07-01T18:30:01.021Z,0.30
2018-07-01T18:32:29.687Z,0.30
2018-07-01T18:34:58.421Z,0.30
2018-07-01T18:37:27.129Z,0.30
2018-07-01T18:39:55.803Z,0.45
2018-07-01T18:42:25.364Z,0.17
2018-07-01T18:44:54.089Z,0.30
2018-07-01T18:47:22.748Z,0.37
2018-07-01T18:49:51.478Z,1.08
2018-07-01T18:52:20.170Z,0.60
2018-07-01T18:54:49.007Z,0.60
2018-07-01T18:57:17.732Z,0.22
2018-07-01T18:59:46.482Z,0.20
2018-07-01T19:02:15.333Z,0.10
2018-07-01T19:04:46.461Z,0.37
2018-07-01T19:07:15.175Z,0.80
2018-07-01T19:09:43.919Z,0.40
2018-07-01T19:12:12.709Z,0.50
2018-07-01T19:14:41.532Z,0.45
2018-07-01T19:17:10.304Z,0.45
2018-07-01T19:19:38.997Z,0.90
2018-07-01T19:22:07.763Z,0.50
2018-07-01T19:24:37.605Z,0.40
2018-07-01T19:27:06.384Z,0.50
2018-07-01T19:29:35.219Z,0.50
2018-07-01T19:32:04.823Z,0.60
2018-07-01T19:34:33.559Z,0.77
2018-07-01T19:37:02.341Z,0.55
2018-07-01T19:39:32.149Z,0.50
2018-07-01T19:42:00.998Z,0.50
2018-07-01T19:44:29.898Z,0.60
2018-07-01T19:47:01.546Z,0.60
2018-07-01T19:49:30.732Z,0.60
2018-07-01T19:52:02.196Z,0.60
2018-07-01T19:54:31.298Z,0.60
2018-07-01T19:57:16.861Z,0.60
2018-07-01T19:59:46.277Z,0.55
2018-07-01T20:02:15.512Z,0.75
2018-07-01T20:07:25.217Z,0.62
2018-07-01T20:09:54.376Z,0.70
2018-07-01T20:12:24.494Z,0.50
2018-07-01T20:14:53.566Z,0.70
2018-07-01T20:17:22.626Z,0.70
2018-07-01T20:19:52.015Z,0.50
2018-07-01T20:22:21.263Z,0.57
2018-07-01T20:24:50.490Z,0.52
2018-07-01T20:27:19.681Z,0.77
2018-07-01T20:29:49.068Z,0.50
2018-07-01T20:32:20.961Z,0.95
2018-07-01T20:34:49.725Z,0.95
2018-07-01T20:37:18.966Z,0.80
2018-07-01T20:39:51.507Z,0.80
2018-07-01T20:45:17.771Z,0.80
2018-07-01T20:47:46.850Z,0.60
2018-07-01T20:50:24.569Z,0.70
2018-07-01T20:53:01.607Z,0.70
2018-07-01T20:55:39.717Z,0.80
2018-07-01T20:58:15.418Z,0.77
2018-07-01T21:00:51.908Z,0.60
2018-07-01T21:03:28.044Z,0.50
2018-07-01T21:06:04.742Z,0.60
2018-07-01T21:08:41.362Z,0.50
2018-07-01T21:11:18.535Z,0.62
2018-07-01T21:13:55.320Z,0.80
2018-07-01T21:16:32.840Z,0.70
2018-07-01T21:19:09.119Z,0.60
2018-07-01T21:21:45.888Z,0.50
2018-07-01T21:24:22.526Z,0.50
2018-07-01T21:26:51.355Z,0.65
2018-07-01T21:29:20.030Z,0.60
2018-07-01T21:31:48.709Z,0.60
2018-07-01T21:34:17.339Z,0.68
2018-07-01T21:36:46.774Z,0.47
2018-07-01T21:39:15.401Z,0.80
2018-07-01T21:41:45.647Z,0.82
2018-07-01T21:44:14.561Z,0.53
2018-07-01T21:46:43.234Z,0.50
2018-07-01T21:49:12.256Z,0.40
2018-07-01T21:51:40.913Z,0.50
2018-07-01T21:54:11.101Z,0.30
2018-07-01T21:56:40.939Z,0.60
2018-07-01T21:59:09.803Z,0.70
2018-07-01T22:01:38.807Z,0.60
2018-07-01T22:04:07.457Z,0.80
2018-07-01T22:06:37.267Z,0.50
2018-07-01T22:09:07.573Z,0.40
2018-07-01T22:12:15.327Z,0.62
2018-07-01T22:14:44.469Z,0.50
2018-07-01T22:17:13.739Z,0.60
2018-07-01T22:19:42.777Z,0.50
2018-07-01T22:22:11.730Z,0.60
2018-07-01T22:24:41.226Z,0.50
2018-07-01T22:27:10.294Z,0.50
2018-07-01T22:29:39.047Z,0.60
2018-07-01T22:32:07.981Z,0.50
2018-07-01T22:34:36.757Z,0.40
2018-07-01T22:37:06.087Z,0.57
2018-07-01T22:39:35.006Z,0.40
2018-07-01T22:42:03.816Z,0.50
2018-07-01T22:44:32.791Z,0.60
2018-07-01T22:47:01.759Z,0.60
2018-07-01T22:49:30.530Z,0.60
2018-07-01T22:51:59.574Z,0.60
2018-07-01T22:54:28.493Z,0.50
2018-07-01T22:56:57.560Z,0.47
2018-07-01T22:59:28.500Z,0.40
2018-07-01T23:02:01.832Z,0.60
2018-07-01T23:04:30.522Z,0.60
2018-07-01T23:06:59.474Z,0.50
2018-07-01T23:09:28.045Z,0.40
2018-07-01T23:11:56.724Z,0.50
2018-07-01T23:14:25.361Z,0.43
2018-07-01T23:16:54.012Z,0.57
2018-07-01T23:19:22.656Z,0.67
2018-07-01T23:21:51.317Z,0.40
2018-07-01T23:24:19.966Z,0.40
2018-07-01T23:26:48.637Z,0.40
2018-07-01T23:29:17.268Z,0.40
2018-07-01T23:31:45.982Z,0.70
2018-07-01T23:34:14.617Z,0.40
2018-07-01T23:36:43.548Z,0.40
2018-07-01T23:39:13.993Z,0.43
2018-07-01T23:41:43.967Z,0.50
2018-07-01T23:44:13.081Z,0.67
2018-07-01T23:46:42.479Z,0.40
2018-07-01T23:49:11.713Z,0.77
2018-07-01T23:51:40.398Z,0.50
2018-07-01T23:54:09.051Z,0.60
2018-07-01T23:56:37.752Z,0.50
2018-07-01T23:59:06.380Z,0.60
